Time;durP1;ratioP1;P1;durP2;ratioP2;P2;SDS_P1;SDS_P2;PMS_P1;PMS_P2;Temp;Humidity;BMP_temperature;BMP_pressure;BME280_temperature;BME280_humidity;BME280_pressure;Samples;Min_cycle;Max_cycle;Signal;HPM_P1;HPM_P2
2022/10/22 00:01:49;;;;;;;14.38;7.13;;;;;;;6.87;67.64;100398.78;6076934;23;20102;-78
2022/10/22 00:04:14;;;;;;;13.90;7.15;;;;;;;6.99;67.55;100418.81;6127312;23;20092;-78
2022/10/22 00:06:43;;;;;;;12.60;7.10;;;;;;;6.93;67.53;100410.13;6126637;23;20014;-78
2022/10/22 00:09:11;;;;;;;16.33;7.57;;;;;;;7.10;67.76;100432.78;6101560;23;20018;-79
2022/10/22 00:11:37;;;;;;;13.48;6.95;;;;;;;7.11;67.69;100433.66;6100629;23;20145;-78
2022/10/22 00:14:03;;;;;;;12.95;7.00;;;;;;;7.09;68.03;100424.16;6077364;23;20022;-79
2022/10/22 00:16:29;;;;;;;12.18;7.03;;;;;;;7.04;67.62;100414.56;6127890;23;20018;-79
2022/10/22 00:18:56;;;;;;;10.40;6.43;;;;;;;6.93;67.71;100399.78;6126601;23;20021;-78
2022/10/22 00:21:22;;;;;;;15.93;7.90;;;;;;;7.02;67.69;100414.56;6102102;23;20100;-79
2022/10/22 00:23:48;;;;;;;12.00;6.65;;;;;;;7.14;67.86;100418.19;6101718;23;20084;-81
2022/10/22 00:26:13;;;;;;;14.75;6.40;;;;;;;7.06;67.62;100410.31;6101756;23;20472;-78
2022/10/22 00:28:39;;;;;;;11.00;6.72;;;;;;;7.04;68.25;100399.06;6095231;23;20002;-79
2022/10/22 00:31:06;;;;;;;10.45;6.68;;;;;;;7.00;68.06;100395.56;6104135;23;20001;-78
2022/10/22 00:33:31;;;;;;;11.40;6.25;;;;;;;7.12;67.75;100414.69;6104502;23;20050;-79
2022/10/22 00:35:57;;;;;;;10.73;6.18;;;;;;;7.12;67.67;100415.56;6108956;23;20022;-77
2022/10/22 00:38:24;;;;;;;9.02;5.63;;;;;;;7.12;67.93;100422.47;6061857;23;20036;-79
2022/10/22 00:40:50;;;;;;;13.70;6.32;;;;;;;7.10;67.87;100427.63;6070754;23;20022;-79
2022/10/22 00:43:18;;;;;;;11.30;6.70;;;;;;;6.99;67.81;100400.69;6096499;23;20022;-79
2022/10/22 00:45:45;;;;;;;11.35;6.60;;;;;;;7.00;67.93;100416.25;6129106;23;20028;-79
2022/10/22 00:48:20;;;;;;;11.45;6.20;;;;;;;6.78;68.09;100381.41;6106194;23;20168;-79
2022/10/22 00:50:56;;;;;;;10.77;6.28;;;;;;;6.98;67.91;100423.13;6104718;23;20022;-80
2022/10/22 00:53:42;;;;;;;10.02;6.57;;;;;;;6.88;68.27;100418.63;6081086;23;20018;-78
2022/10/22 00:56:09;;;;;;;12.30;6.75;;;;;;;6.82;68.25;100413.38;6081927;23;20088;-81
2022/10/22 00:58:42;;;;;;;14.38;7.00;;;;;;;6.95;68.23;100419.63;6079883;23;20053;-80
2022/10/22 01:01:15;;;;;;;10.88;6.55;;;;;;;6.93;68.52;100415.31;6126075;23;20014;-78
2022/10/22 01:03:41;;;;;;;12.13;7.00;;;;;;;6.90;68.58;100404.91;6052390;23;20022;-78
2022/10/22 01:06:11;;;;;;;13.52;7.05;;;;;;;7.03;68.55;100418.00;6100211;23;20451;-79
2022/10/22 01:08:44;;;;;;;10.52;7.03;;;;;;;7.05;68.72;100418.91;6076163;23;20017;-79
2022/10/22 01:11:47;;;;;;;12.38;6.70;;;;;;;7.09;68.73;100424.16;6052354;23;20018;-80
2022/10/22 01:14:26;;;;;;;11.88;7.18;;;;;;;7.10;69.03;100422.44;6077357;23;20060;-77
2022/10/22 01:17:10;;;;;;;15.10;7.15;;;;;;;6.98;68.21;100410.19;6100171;23;20018;-78
2022/10/22 01:20:03;;;;;;;14.23;6.72;;;;;;;7.04;68.62;100414.56;6127030;23;20024;-80
2022/10/22 01:22:37;;;;;;;11.90;7.35;;;;;;;6.97;68.99;100403.28;6051643;23;20304;-79
2022/10/22 01:25:18;;;;;;;11.80;6.82;;;;;;;7.07;69.01;100417.22;6076332;23;20018;-78
2022/10/22 01:28:15;;;;;;;10.20;6.28;;;;;;;7.11;69.41;100424.19;6052527;23;20021;-78
2022/10/22 01:30:44;;;;;;;12.80;6.95;;;;;;;7.14;68.83;100418.19;6053168;23;20050;-77
2022/10/22 01:33:15;;;;;;;13.30;7.07;;;;;;;7.10;68.56;100414.69;6126719;23;20099;-79
2022/10/22 01:35:43;;;;;;;11.63;6.55;;;;;;;7.03;68.86;100410.25;6076028;23;20100;-77
2022/10/22 01:38:14;;;;;;;11.57;6.32;;;;;;;7.13;69.38;100421.59;6075126;23;20022;-79
2022/10/22 01:40:41;;;;;;;11.15;6.80;;;;;;;7.22;69.19;100432.13;6099313;23;20013;-78
2022/10/22 01:43:10;;;;;;;11.80;6.40;;;;;;;7.21;69.11;100430.38;6125800;23;20368;-79
2022/10/22 01:45:44;;;;;;;10.10;6.78;;;;;;;7.13;69.05;100413.84;6123869;23;20074;-77
2022/10/22 01:48:26;;;;;;;10.80;6.45;;;;;;;7.21;69.10;100432.97;6099591;23;20018;-77
2022/10/22 01:51:37;;;;;;;12.15;6.70;;;;;;;7.21;69.11;100435.56;6125528;23;20013;-78
2022/10/22 01:54:21;;;;;;;14.43;6.50;;;;;;;7.24;69.34;100435.59;6099152;23;20117;-78
2022/10/22 01:57:12;;;;;;;12.40;6.57;;;;;;;7.07;69.15;100409.47;6125270;23;20017;-78
2022/10/22 02:00:11;;;;;;;11.63;6.57;;;;;;;7.31;69.19;100437.41;6032284;23;20018;-77
2022/10/22 02:02:59;;;;;;;12.55;6.32;;;;;;;7.11;69.22;100407.78;6052120;23;20018;-78
2022/10/22 02:05:37;;;;;;;11.32;5.95;;;;;;;7.21;68.98;100430.38;6100030;23;20033;-81
2022/10/22 02:08:14;;;;;;;9.35;6.57;;;;;;;7.05;69.21;100411.16;6100602;23;20022;-78
2022/10/22 02:10:44;;;;;;;11.55;6.13;;;;;;;7.02;69.08;100405.91;6125571;23;20025;-77
2022/10/22 02:13:17;;;;;;;9.85;6.28;;;;;;;7.03;68.83;100425.78;6100487;23;20072;-79
2022/10/22 02:15:45;;;;;;;10.73;5.97;;;;;;;7.09;69.18;100438.81;6125827;23;20539;-77
2022/10/22 02:18:14;;;;;;;10.35;6.20;;;;;;;7.08;69.26;100439.66;6125942;23;20021;-78
2022/10/22 02:20:41;;;;;;;12.65;6.65;;;;;;;6.90;69.25;100415.25;6125782;23;20408;-80
2022/10/22 02:23:09;;;;;;;10.35;6.45;;;;;;;6.74;69.13;100392.53;6101118;23;20025;-78
2022/10/22 02:25:39;;;;;;;12.38;6.88;;;;;;;6.81;69.62;100414.22;6129107;23;20018;-79
2022/10/22 02:28:14;;;;;;;9.40;6.30;;;;;;;6.88;68.91;100445.41;6113138;23;20040;-79
2022/10/22 02:30:43;;;;;;;10.77;6.15;;;;;;;6.63;69.04;100406.19;6107867;23;20035;-78
2022/10/22 02:33:32;;;;;;;13.38;6.75;;;;;;;6.86;69.83;100447.09;6143587;23;20426;-79
2022/10/22 02:36:01;;;;;;;11.38;6.65;;;;;;;6.83;69.59;100439.25;6123039;23;20321;-79
2022/10/22 02:38:28;;;;;;;10.77;6.18;;;;;;;6.76;69.24;100438.31;6121828;23;20032;-79
2022/10/22 02:40:54;;;;;;;13.82;6.05;;;;;;;6.78;69.72;100446.06;6097192;23;20033;-77
2022/10/22 02:43:24;;;;;;;13.18;7.00;;;;;;;6.68;69.51;100432.13;6097958;23;20025;-79
2022/10/22 02:45:50;;;;;;;11.38;6.60;;;;;;;6.72;69.38;100453.75;6151772;23;20021;-78
2022/10/22 02:48:16;;;;;;;11.57;6.93;;;;;;;6.72;69.88;100444.25;6152225;23;20053;-78
2022/10/22 02:50:42;;;;;;;10.55;6.60;;;;;;;6.72;69.37;100451.16;6079855;23;20371;-78
2022/10/22 02:53:09;;;;;;;11.57;6.47;;;;;;;6.69;69.70;100440.75;6100862;23;20049;-78
2022/10/22 02:55:35;;;;;;;12.75;6.82;;;;;;;6.64;69.80;100432.91;6128157;23;20359;-79
2022/10/22 02:58:01;;;;;;;13.75;6.93;;;;;;;6.77;69.76;100444.31;6127761;23;20475;-77
2022/10/22 03:00:27;;;;;;;14.73;7.38;;;;;;;6.67;69.68;100426.94;6128262;23;20013;-77
2022/10/22 03:02:53;;;;;;;14.52;7.07;;;;;;;6.84;69.98;100450.50;6128405;23;20048;-77
2022/10/22 03:05:19;;;;;;;12.68;6.93;;;;;;;6.89;69.63;100462.66;6102644;23;20026;-77
2022/10/22 03:07:45;;;;;;;10.52;6.53;;;;;;;6.77;69.77;100436.56;6078991;23;20403;-79
2022/10/22 03:10:11;;;;;;;12.25;6.65;;;;;;;6.91;69.72;100458.38;6128935;23;20014;-78
2022/10/22 03:12:38;;;;;;;16.90;6.72;;;;;;;6.93;69.59;100450.63;6102566;23;20033;-77
2022/10/22 03:15:04;;;;;;;15.35;6.97;;;;;;;6.73;69.88;100417.56;6128928;23;20056;-79
2022/10/22 03:17:30;;;;;;;14.95;7.28;;;;;;;6.87;69.86;100450.53;6090729;23;20024;-77
2022/10/22 03:19:56;;;;;;;14.23;6.85;;;;;;;6.82;69.90;100437.53;6116755;23;20009;-75
2022/10/22 03:22:26;;;;;;;11.98;6.28;;;;;;;6.82;69.93;100434.94;6119021;23;20024;-78
2022/10/22 03:24:57;;;;;;;11.73;6.43;;;;;;;6.82;69.86;100441.84;6119628;23;20022;-77
2022/10/22 03:27:26;;;;;;;10.65;6.97;;;;;;;6.81;69.78;100446.13;6140687;23;20026;-78
2022/10/22 03:29:52;;;;;;;14.20;7.28;;;;;;;6.88;69.99;100457.44;6112998;23;20098;-77
2022/10/22 03:32:19;;;;;;;14.43;6.95;;;;;;;6.74;69.89;100434.81;6061566;23;20018;-78
2022/10/22 03:34:45;;;;;;;12.20;6.50;;;;;;;6.71;69.66;100419.22;6082656;23;20018;-79
2022/10/22 03:37:11;;;;;;;12.27;6.43;;;;;;;6.78;69.76;100430.56;6106141;23;20028;-78
2022/10/22 03:39:38;;;;;;;11.68;6.65;;;;;;;6.78;69.79;100422.78;6082102;23;20053;-79
2022/10/22 03:42:05;;;;;;;14.02;6.88;;;;;;;6.65;69.79;100401.03;6082597;23;20017;-77
2022/10/22 03:44:32;;;;;;;11.27;6.70;;;;;;;6.40;69.67;100366.97;6130700;23;20428;-78
2022/10/22 03:46:58;;;;;;;10.30;6.18;;;;;;;6.65;69.40;100415.69;6105949;23;20021;-78
2022/10/22 03:49:24;;;;;;;9.55;6.38;;;;;;;6.73;69.63;100430.47;6103974;23;20017;-78
2022/10/22 03:51:50;;;;;;;10.95;6.65;;;;;;;6.76;69.79;100433.13;6100550;23;20460;-78
2022/10/22 03:54:16;;;;;;;10.00;6.18;;;;;;;6.88;70.17;100457.44;6076728;23;20018;-78
2022/10/22 03:56:42;;;;;;;10.40;6.63;;;;;;;6.90;69.96;100451.47;6128421;23;20025;-78
2022/10/22 03:59:08;;;;;;;12.95;6.68;;;;;;;6.79;69.85;100440.06;6055234;23;20023;-77
2022/10/22 04:01:34;;;;;;;12.20;6.75;;;;;;;6.73;70.03;100420.13;6102060;23;20463;-78
2022/10/22 04:04:00;;;;;;;10.27;6.15;;;;;;;6.96;69.96;100454.97;6127307;23;20022;-77
2022/10/22 04:06:28;;;;;;;11.00;5.97;;;;;;;6.93;69.89;100443.75;6127206;23;20021;-77
2022/10/22 04:08:54;;;;;;;9.07;5.78;;;;;;;6.96;69.73;100449.81;6101095;23;20065;-78
2022/10/22 04:11:20;;;;;;;12.20;6.22;;;;;;;6.95;69.75;100455.84;6100541;23;20026;-77
2022/10/22 04:13:46;;;;;;;12.25;7.45;;;;;;;6.98;70.41;100455.88;6126195;23;20022;-80
2022/10/22 04:16:21;;;;;;;9.82;5.97;;;;;;;7.02;70.08;100457.69;6099918;23;20115;-79
2022/10/22 04:18:48;;;;;;;9.63;5.72;;;;;;;7.02;70.21;100461.16;6100324;23;20305;-76
2022/10/22 04:21:16;;;;;;;9.50;5.80;;;;;;;6.99;69.92;100457.63;6100631;23;20025;-79
2022/10/22 04:23:47;;;;;;;12.98;6.95;;;;;;;7.00;70.11;100459.38;6101948;23;20487;-79
2022/10/22 04:26:15;;;;;;;13.02;5.85;;;;;;;6.88;69.83;100450.56;6100575;23;20045;-79
2022/10/22 04:28:41;;;;;;;10.23;6.10;;;;;;;7.00;69.56;100464.53;6100752;23;20029;-78
2022/10/22 04:31:11;;;;;;;11.25;6.00;;;;;;;6.97;70.04;100457.59;6101164;23;20021;-79
2022/10/22 04:33:44;;;;;;;10.10;6.03;;;;;;;6.85;69.70;100437.56;6101320;23;20017;-79
2022/10/22 04:36:16;;;;;;;9.90;6.10;;;;;;;7.02;69.96;100468.03;6101875;23;20025;-79
2022/10/22 04:38:45;;;;;;;11.95;6.57;;;;;;;6.82;69.68;100440.09;6100944;23;20030;-79
2022/10/22 04:41:32;;;;;;;10.65;6.57;;;;;;;7.01;69.80;100469.75;6101065;23;20016;-78
2022/10/22 04:44:06;;;;;;;10.85;6.57;;;;;;;6.98;69.82;100448.13;6075721;23;20018;-79
2022/10/22 04:46:34;;;;;;;12.65;6.60;;;;;;;7.06;70.24;100449.13;6126160;23;20049;-79
2022/10/22 04:49:04;;;;;;;12.95;7.13;;;;;;;7.09;69.92;100457.78;6079527;23;20084;-80
2022/10/22 04:51:33;;;;;;;11.70;6.75;;;;;;;7.17;69.75;100470.00;6128933;23;20018;-80
2022/10/22 04:54:07;;;;;;;10.82;6.30;;;;;;;6.53;69.69;100362.03;6130503;23;20018;-79
2022/10/22 04:56:36;;;;;;;12.85;6.82;;;;;;;6.50;69.45;100360.28;6098540;23;20013;-81
2022/10/22 04:59:07;;;;;;;12.20;6.68;;;;;;;6.86;69.67;100410.88;6123687;23;20030;-79
2022/10/22 05:01:39;;;;;;;12.88;6.63;;;;;;;7.25;69.34;100483.94;6077359;23;20013;-79
2022/10/22 05:04:10;;;;;;;10.70;6.68;;;;;;;6.47;69.47;100345.56;6107119;23;20021;-80
2022/10/22 05:06:36;;;;;;;10.63;6.95;;;;;;;7.09;69.82;100452.63;6084652;23;20060;-79
2022/10/22 05:09:07;;;;;;;11.45;7.40;;;;;;;7.03;69.54;100437.00;6130238;23;20018;-81
2022/10/22 05:11:44;;;;;;;10.73;6.72;;;;;;;7.05;69.30;100426.69;6102986;23;20076;-80
2022/10/22 05:14:10;;;;;;;10.65;6.57;;;;;;;6.97;69.48;100421.38;6084067;23;20022;-80
2022/10/22 05:16:39;;;;;;;11.40;6.47;;;;;;;7.32;69.71;100482.31;6106691;23;20025;-78
2022/10/22 05:19:16;;;;;;;10.60;6.80;;;;;;;7.34;69.56;100478.88;6078361;23;20025;-80
2022/10/22 05:21:42;;;;;;;11.82;6.50;;;;;;;7.39;69.62;100482.44;6079275;23;20448;-80
2022/10/22 05:24:08;;;;;;;11.48;6.82;;;;;;;7.39;69.34;100476.38;6101909;23;20368;-81
2022/10/22 05:26:34;;;;;;;11.07;6.65;;;;;;;7.42;69.28;100481.59;6076019;23;20087;-80
2022/10/22 05:29:00;;;;;;;12.75;6.90;;;;;;;7.35;69.15;100459.91;6075418;23;20480;-81
2022/10/22 05:31:29;;;;;;;11.88;6.93;;;;;;;7.24;69.41;100441.63;6101043;23;20018;-79
2022/10/22 05:33:55;;;;;;;11.90;6.40;;;;;;;7.28;69.39;100450.34;6126728;23;20052;-81
2022/10/22 05:36:34;;;;;;;10.70;6.47;;;;;;;7.48;69.48;100486.00;6100888;23;20022;-78
2022/10/22 05:39:13;;;;;;;12.70;7.03;;;;;;;6.84;69.01;100376.34;6100039;23;20526;-82
2022/10/22 05:41:48;;;;;;;11.80;6.72;;;;;;;7.42;69.02;100480.72;6077090;23;20014;-79
2022/10/22 05:44:17;;;;;;;9.77;6.03;;;;;;;7.40;69.00;100485.88;6126098;23;20799;-80
2022/10/22 05:46:47;;;;;;;11.45;6.55;;;;;;;6.11;69.09;100273.44;6099471;23;20024;-78
2022/10/22 05:49:57;;;;;;;12.43;6.45;;;;;;;6.57;69.09;100371.59;6075584;23;20025;-81
2022/10/22 05:52:29;;;;;;;14.30;6.53;;;;;;;6.15;68.73;100288.16;6106118;23;20065;-79
2022/10/22 05:54:55;;;;;;;10.48;6.80;;;;;;;6.07;68.99;100308.72;6105745;23;20021;-79
2022/10/22 05:58:34;;;;;;;11.93;6.15;;;;;;;6.15;69.03;100301.09;6079177;23;20101;-82
2022/10/22 06:01:06;;;;;;;11.00;6.00;;;;;;;6.95;69.19;100422.22;6022191;23;20018;-83
2022/10/22 06:03:35;;;;;;;12.65;6.35;;;;;;;6.05;68.78;100263.03;6028073;23;20571;-83
2022/10/22 06:06:32;;;;;;;13.90;6.00;;;;;;;6.20;69.00;100289.13;6001081;23;20023;-79
2022/10/22 06:09:35;;;;;;;10.45;5.95;;;;;;;7.03;69.06;100452.53;5999216;23;20082;-80
2022/10/22 06:12:12;;;;;;;11.38;5.85;;;;;;;7.24;69.14;100488.22;6062875;23;20029;-79
2022/10/22 06:14:42;;;;;;;12.80;5.80;;;;;;;7.38;69.17;100495.38;6114688;23;20018;-83
2022/10/22 06:17:11;;;;;;;13.73;6.05;;;;;;;6.85;69.58;100413.41;6061535;23;20014;-79
2022/10/22 06:19:44;;;;;;;10.65;5.80;;;;;;;6.33;69.29;100316.91;6110253;23;20017;-80
2022/10/22 06:22:19;;;;;;;8.70;5.43;;;;;;;7.08;69.02;100439.66;6089865;23;20030;-82
2022/10/22 06:24:47;;;;;;;9.70;5.50;;;;;;;6.33;69.13;100323.81;6093744;23;20104;-78
2022/10/22 06:27:20;;;;;;;8.93;4.97;;;;;;;7.24;69.35;100477.88;6091399;23;20045;-80
2022/10/22 06:29:48;;;;;;;9.23;5.15;;;;;;;7.50;69.03;100505.88;6142136;23;20021;-84
2022/10/22 06:32:28;;;;;;;9.75;5.63;;;;;;;7.33;69.16;100484.06;6095873;23;20013;-81
2022/10/22 06:35:06;;;;;;;15.20;8.88;;;;;;;7.09;69.16;100426.72;6114704;23;20022;-82
2022/10/22 06:37:38;;;;;;;9.13;5.78;;;;;;;7.08;68.86;100425.00;6093790;23;20345;-82
2022/10/22 06:40:07;;;;;;;8.82;5.63;;;;;;;7.17;68.91;100415.63;6145184;23;20018;-82
2022/10/22 06:42:37;;;;;;;11.68;5.47;;;;;;;7.17;68.80;100419.09;6068987;23;20017;-80
2022/10/22 06:45:24;;;;;;;8.68;4.78;;;;;;;7.94;69.14;100515.16;6116879;23;20033;-81
2022/10/22 06:47:50;;;;;;;8.48;4.90;;;;;;;7.44;68.89;100416.88;6142515;23;20022;-85
2022/10/22 06:50:24;;;;;;;7.65;5.05;;;;;;;7.14;68.71;100358.66;6142621;23;20022;-81
2022/10/22 06:58:24;;;;;;;;;;;;;;;;;;;;;
2022/10/22 07:02:05;;;;;;;;;;;;;;;;;;;;;
2022/10/22 07:04:50;;;;;;;15.30;4.60;;;;;;;7.25;67.83;100331.22;6143325;23;20037;-82
2022/10/22 07:07:22;;;;;;;8.68;4.97;;;;;;;8.42;67.46;100536.47;6088509;23;20045;-83
2022/10/22 07:09:52;;;;;;;9.38;5.18;;;;;;;7.42;67.35;100366.78;6145303;23;20085;-83
2022/10/22 07:12:20;;;;;;;9.45;4.32;;;;;;;7.48;67.17;100397.97;6153376;23;20018;-81
2022/10/22 07:14:47;;;;;;;7.38;4.70;;;;;;;7.62;67.18;100405.88;6128921;23;20062;-84
2022/10/22 07:17:23;;;;;;;7.22;4.95;;;;;;;7.84;67.46;100433.81;6146960;23;20506;-82
2022/10/22 07:20:20;;;;;;;;;;;;;;;8.38;67.22;100528.66;6144187;23;20061;-83
2022/10/22 07:23:00;;;;;;;9.63;5.30;;;;;;;8.37;67.17;100537.28;6138582;23;19913;-82
2022/10/22 07:25:29;;;;;;;7.85;5.28;;;;;;;7.44;67.38;100373.72;6143853;23;20065;-83
2022/10/22 07:28:01;;;;;;;8.70;5.10;;;;;;;7.17;66.68;100325.91;6119339;23;20017;-82
2022/10/22 07:30:29;;;;;;;10.23;5.32;;;;;;;8.36;66.75;100531.22;6119824;23;20041;-82
2022/10/22 07:32:59;;;;;;;8.95;5.20;;;;;;;8.32;66.80;100497.47;6151546;23;20021;-82
2022/10/22 07:35:27;;;;;;;8.40;5.53;;;;;;;8.24;66.95;100487.00;6147467;23;20022;-81
2022/10/22 07:40:48;;;;;;;9.20;5.50;;;;;;;7.41;66.75;100336.56;6138044;23;20041;-84
2022/10/22 07:43:58;;;;;;;10.88;5.68;;;;;;;8.79;66.94;100535.16;6134533;23;20037;-83
2022/10/22 07:46:47;;;;;;;10.77;5.63;;;;;;;8.51;66.39;100470.91;6094273;23;20017;-84
2022/10/22 07:49:14;;;;;;;8.80;5.82;;;;;;;8.39;66.11;100456.03;6138148;23;20014;-84
2022/10/22 07:52:15;;;;;;;10.35;5.40;;;;;;;8.40;66.01;100442.22;6081590;23;20116;-86
2022/10/22 07:55:13;;;;;;;7.93;5.23;;;;;;;9.01;66.13;100531.06;6113479;23;20519;-83
2022/10/22 07:57:43;;;;;;;8.95;5.55;;;;;;;7.86;65.90;100317.25;6115722;23;20257;-85
2022/10/22 08:01:08;;;;;;;13.52;6.13;;;;;;;9.19;65.89;100536.41;6114920;23;20040;-85
2022/10/22 08:04:08;;;;;;;8.07;5.32;;;;;;;8.19;65.64;100377.19;6032058;23;20018;-84
2022/10/22 08:07:15;;;;;;;8.93;6.00;;;;;;;9.15;66.03;100531.19;5961336;23;20023;-88
2022/10/22 08:10:26;;;;;;;10.60;5.63;;;;;;;8.57;65.31;100431.16;6019150;23;20034;-84
2022/10/22 08:13:38;;;;;;;7.50;5.03;;;;;;;9.32;64.88;100537.41;6123315;23;20018;-83
2022/10/22 08:16:42;;;;;;;12.75;5.60;;;;;;;8.11;64.89;100352.03;6100358;23;20017;-84
2022/10/22 08:22:07;;;;;;;9.20;4.93;;;;;;;8.32;64.95;100410.16;6131802;23;20029;-84
2022/10/22 08:24:33;;;;;;;13.60;5.32;;;;;;;8.04;65.04;100352.84;6116426;23;20013;-84
2022/10/22 08:27:32;;;;;;;9.27;4.88;;;;;;;8.37;65.23;100400.69;6119088;23;20022;-84
2022/10/22 08:30:07;;;;;;;6.70;4.65;;;;;;;7.96;64.56;100315.59;6124898;23;20044;-81
2022/10/22 08:33:13;;;;;;;7.70;4.97;;;;;;;8.31;64.79;100346.16;6121113;23;20018;-81
2022/10/22 08:36:01;;;;;;;9.13;4.72;;;;;;;9.50;64.72;100536.63;6042178;23;20031;-84
2022/10/22 08:38:51;;;;;;;11.38;4.75;;;;;;;9.54;64.16;100534.97;6062419;23;20018;-83
2022/10/22 08:42:19;;;;;;;11.48;6.15;;;;;;;9.48;64.00;100538.38;6052862;23;20015;-82
2022/10/22 08:45:21;;;;;;;6.88;4.65;;;;;;;8.83;63.86;100438.31;6090696;23;20018;-85
2022/10/22 08:52:44;;;;;;;9.57;5.05;;;;;;;8.70;64.15;100390.63;6082008;23;20018;-80
2022/10/22 08:55:37;;;;;;;8.23;3.65;;;;;;;9.69;63.61;100539.41;6109799;23;20018;-82
2022/10/22 08:58:35;;;;;;;7.47;3.80;;;;;;;9.78;63.67;100526.44;6089910;23;20026;-80
2022/10/22 09:04:56;;;;;;;9.27;3.92;;;;;;;9.12;63.16;100451.53;6087259;23;20352;-82
2022/10/22 09:07:33;;;;;;;8.02;4.30;;;;;;;9.83;62.71;100526.47;6067979;23;20027;-79
2022/10/22 09:10:02;;;;;;;8.13;4.30;;;;;;;9.34;62.94;100446.47;6114354;23;20081;-79
2022/10/22 09:13:07;;;;;;;7.28;3.83;;;;;;;9.15;62.49;100409.16;6108672;23;20022;-81
2022/10/22 09:19:42;;;;;;;10.82;4.25;;;;;;;9.56;62.28;100485.59;6109522;23;20019;-79
2022/10/22 09:23:11;;;;;;;5.20;3.57;;;;;;;9.91;62.81;100522.19;6106359;23;20030;-81
2022/10/22 09:25:34;;;;;;;10.35;4.50;;;;;;;9.20;62.08;100407.44;6084023;23;20042;-81
2022/10/22 09:28:31;;;;;;;12.85;4.35;;;;;;;9.23;62.29;100417.00;6094987;23;20002;-82
2022/10/22 09:30:58;;;;;;;14.32;4.88;;;;;;;10.00;62.12;100526.56;6095141;23;20445;-80
2022/10/22 09:33:32;;;;;;;9.10;4.32;;;;;;;9.82;61.65;100490.94;6059268;23;20022;-81
2022/10/22 09:36:30;;;;;;;11.50;4.93;;;;;;;9.34;61.60;100402.34;6104718;23;20025;-82
2022/10/22 09:38:56;;;;;;;11.45;5.10;;;;;;;8.94;61.62;100342.38;6094629;23;20018;-82
2022/10/22 09:41:49;;;;;;;11.07;4.75;;;;;;;8.84;61.47;100341.44;6086471;23;20364;-81
2022/10/22 09:44:25;;;;;;;8.52;4.30;;;;;;;8.92;61.63;100333.72;6110364;23;20026;-80
2022/10/22 09:46:51;;;;;;;9.57;4.57;;;;;;;9.58;61.54;100430.19;6107128;23;20021;-82
2022/10/22 09:49:30;;;;;;;12.00;4.82;;;;;;;10.22;61.38;100527.53;6108467;23;20050;-80
2022/10/22 09:52:01;;;;;;;7.97;4.40;;;;;;;10.01;61.10;100452.03;6106209;23;20149;-80
2022/10/22 09:54:43;;;;;;;6.93;4.25;;;;;;;9.71;60.64;100393.84;6081013;23;20022;-79
2022/10/22 09:57:25;;;;;;;12.90;4.10;;;;;;;9.61;60.49;100391.19;6088925;23;20033;-81
2022/10/22 10:00:18;;;;;;;9.27;3.92;;;;;;;9.59;60.36;100403.34;6091432;23;20238;-82
2022/10/22 10:03:01;;;;;;;9.02;3.90;;;;;;;9.37;60.41;100340.00;6113118;23;20018;-82
2022/10/22 10:05:48;;;;;;;11.25;4.35;;;;;;;10.53;59.92;100499.03;6063711;23;20078;-82
2022/10/22 10:08:18;;;;;;;7.85;3.78;;;;;;;9.41;59.72;100307.13;6060880;23;20033;-81
2022/10/22 10:14:56;;;;;;;8.30;3.10;;;;;;;10.16;59.02;100426.06;6128296;23;20053;-80
2022/10/22 10:18:00;;;;;;;6.10;2.90;;;;;;;10.44;58.61;100486.03;6147429;23;19998;-82
2022/10/22 10:21:00;;;;;;;4.70;2.55;;;;;;;10.37;58.41;100484.22;6116395;23;20029;-80
2022/10/22 10:23:42;;;;;;;5.82;2.63;;;;;;;10.37;59.25;100495.47;6084154;23;20396;-82
2022/10/22 10:26:28;;;;;;;5.35;2.35;;;;;;;9.21;58.50;100296.66;6108807;23;20360;-83
2022/10/22 10:29:43;;;;;;;7.68;3.25;;;;;;;10.28;57.91;100479.88;6098438;23;20477;-82
2022/10/22 10:32:43;;;;;;;6.93;2.88;;;;;;;10.12;58.17;100462.47;6090018;23;20021;-81
2022/10/22 10:35:29;;;;;;;5.40;3.03;;;;;;;10.29;58.30;100476.41;6084139;23;20049;-82
2022/10/22 10:38:19;;;;;;;4.28;2.30;;;;;;;9.53;58.10;100359.16;6082575;23;20116;-83
2022/10/22 10:41:24;;;;;;;6.97;2.53;;;;;;;10.27;57.77;100479.84;6097263;23;20018;-83
2022/10/22 10:43:58;;;;;;;7.50;2.20;;;;;;;9.91;57.93;100412.16;6136235;23;20097;-82
2022/10/22 10:47:03;;;;;;;5.15;1.85;;;;;;;10.28;57.60;100469.47;6137367;23;20041;-81
2022/10/22 10:50:30;;;;;;;3.20;1.83;;;;;;;9.37;57.44;100319.25;6088038;23;20014;-82
2022/10/22 10:53:29;;;;;;;5.30;2.28;;;;;;;10.33;57.16;100466.88;6108735;23;20025;-80
2022/10/22 10:56:29;;;;;;;7.07;2.78;;;;;;;10.35;57.07;100465.13;6101549;23;20021;-80
2022/10/22 11:03:14;;;;;;;3.42;2.20;;;;;;;10.35;56.98;100465.13;6082335;23;20432;-82
2022/10/22 11:06:13;;;;;;;3.75;2.10;;;;;;;10.38;56.75;100462.56;6081298;23;20014;-80
2022/10/22 11:17:22;;;;;;;5.13;2.20;;;;;;;10.01;55.99;100450.28;5941924;24;20024;-80
2022/10/22 11:24:13;;;;;;;7.10;2.35;;;;;;;9.39;56.73;100382.44;5964191;24;20364;-79
2022/10/22 11:27:02;;;;;;;5.38;2.22;;;;;;;9.34;56.52;100384.16;5969395;23;20034;-79
2022/10/22 11:29:56;;;;;;;8.55;2.22;;;;;;;8.63;56.46;100270.38;5949674;24;20101;-82
2022/10/22 11:33:15;;;;;;;8.05;2.33;;;;;;;8.61;56.44;100284.22;5971343;24;20028;-82
2022/10/22 11:35:46;;;;;;;5.18;2.10;;;;;;;8.56;56.86;100268.59;5968100;24;20031;-82
2022/10/22 11:39:28;;;;;;;3.00;2.15;;;;;;;9.42;56.30;100410.16;5978767;24;20027;-82
2022/10/22 11:42:22;;;;;;;7.13;1.60;;;;;;;8.46;56.48;100259.00;6066128;23;20014;-81
2022/10/22 11:45:29;;;;;;;7.93;2.35;;;;;;;9.77;56.35;100445.88;6065834;23;20018;-82
2022/10/22 11:48:36;;;;;;;3.50;2.22;;;;;;;9.38;56.49;100406.69;6034562;23;20057;-82
2022/10/22 11:51:41;;;;;;;14.48;3.22;;;;;;;9.72;56.45;100434.56;6054039;23;20029;-81
2022/10/22 11:55:16;;;;;;;5.00;1.83;;;;;;;9.76;57.02;100438.94;6057650;23;20014;-82
2022/10/22 11:58:50;;;;;;;4.40;1.55;;;;;;;9.58;56.37;100403.31;6064977;23;20014;-81
2022/10/22 12:05:49;;;;;;;3.30;1.05;;;;;;;9.80;56.30;100443.28;6067886;23;20018;-81
2022/10/22 12:08:32;;;;;;;2.83;1.00;;;;;;;9.75;56.50;100427.66;6079272;23;20080;-80
2022/10/22 12:12:01;;;;;;;;;;;;;;;;;;;;;
2022/10/22 12:15:01;;;;;;;8.35;1.80;;;;;;;9.88;55.89;100438.97;6003654;23;20589;-80
2022/10/22 12:19:17;;;;;;;4.82;2.00;;;;;;;8.51;56.31;100247.81;6028466;23;20034;-80
2022/10/22 12:21:59;;;;;;;5.38;2.05;;;;;;;8.91;56.19;100319.00;5920047;23;20066;-82
2022/10/22 12:25:33;;;;;;;5.00;2.40;;;;;;;9.45;56.44;100434.44;6019799;23;20022;-80
2022/10/22 12:28:10;;;;;;;4.10;2.53;;;;;;;8.49;56.92;100283.25;6040234;23;20089;-83
2022/10/22 12:30:47;;;;;;;5.13;2.50;;;;;;;8.55;56.98;100285.03;6020242;23;20029;-82
2022/10/22 12:33:51;;;;;;;7.20;2.58;;;;;;;9.48;57.00;100431.88;6020814;23;20019;-79
2022/10/22 12:36:54;;;;;;;5.37;2.67;;;;;;;8.47;57.46;100292.72;6000226;23;20468;-80
2022/10/22 12:39:31;;;;;;;5.53;2.70;;;;;;;8.30;57.37;100243.31;5996912;23;20315;-81
2022/10/22 12:42:07;;;;;;;10.73;2.80;;;;;;;8.75;57.29;100321.50;6049934;23;20101;-83
2022/10/22 12:44:33;;;;;;;8.90;2.88;;;;;;;8.94;57.06;100340.63;6104777;23;20018;-80
2022/10/22 12:47:28;;;;;;;3.35;2.60;;;;;;;8.89;57.45;100331.97;6084917;23;20062;-83
2022/10/22 12:50:37;;;;;;;6.07;2.63;;;;;;;8.54;57.88;100304.91;6031394;23;20022;-83
2022/10/22 12:53:52;;;;;;;6.32;3.30;;;;;;;8.76;57.64;100346.59;6096017;23;20074;-84
2022/10/22 12:56:30;;;;;;;5.13;3.15;;;;;;;8.04;58.05;100214.59;6062919;23;20018;-81
2022/10/22 12:59:21;;;;;;;9.05;3.00;;;;;;;8.42;57.71;100297.00;6060139;23;20224;-82
2022/10/22 13:02:24;;;;;;;7.57;3.15;;;;;;;8.31;58.14;100265.78;6066697;23;20013;-85
2022/10/22 13:05:25;;;;;;;10.15;3.60;;;;;;;9.15;58.22;100402.22;6044951;23;20022;-83
2022/10/22 13:08:08;;;;;;;6.65;4.10;;;;;;;9.08;57.75;100413.41;6110341;23;20086;-83
2022/10/22 13:11:21;;;;;;;9.57;3.20;;;;;;;9.07;58.07;100396.09;6069303;23;20018;-83
2022/10/22 13:14:00;;;;;;;7.35;3.25;;;;;;;7.88;58.37;100211.88;6114281;23;20114;-83
2022/10/22 13:16:28;;;;;;;7.70;3.50;;;;;;;9.07;58.47;100400.44;6100081;23;20431;-81
2022/10/22 13:18:54;;;;;;;5.47;3.50;;;;;;;8.89;58.52;100387.31;6052991;23;20042;-80
2022/10/22 13:25:38;;;;;;;5.45;3.10;;;;;;;8.09;58.38;100254.38;5943553;24;20030;-80